sensor_id;sensor_type;location;lat;lon;timestamp;P1;durP1;ratioP1;P2;durP2;ratioP2
52972;SDS011;38837;48.916;2.336;2023-12-20T00:00:32;5.85;;;1.60;;
52972;SDS011;38837;48.916;2.336;2023-12-20T00:02:34;3.28;;;1.48;;
52972;SDS011;38837;48.916;2.336;2023-12-20T00:04:36;5.22;;;1.23;;
52972;SDS011;38837;48.916;2.336;2023-12-20T00:06:38;6.07;;;1.30;;
52972;SDS011;38837;48.916;2.336;2023-12-20T00:08:40;7.57;;;1.65;;
52972;SDS011;38837;48.916;2.336;2023-12-20T00:10:43;3.35;;;1.25;;
52972;SDS011;38837;48.916;2.336;2023-12-20T00:12:45;2.85;;;1.30;;
52972;SDS011;38837;48.916;2.336;2023-12-20T00:14:47;3.95;;;1.77;;
52972;SDS011;38837;48.916;2.336;2023-12-20T00:16:49;6.75;;;1.80;;
52972;SDS011;38837;48.916;2.336;2023-12-20T00:18:51;3.10;;;1.33;;
52972;SDS011;38837;48.916;2.336;2023-12-20T00:20:53;6.03;;;1.58;;
52972;SDS011;38837;48.916;2.336;2023-12-20T00:22:57;4.47;;;1.38;;
52972;SDS011;38837;48.916;2.336;2023-12-20T00:24:59;4.45;;;1.30;;
52972;SDS011;38837;48.916;2.336;2023-12-20T00:27:01;2.00;;;1.40;;
52972;SDS011;38837;48.916;2.336;2023-12-20T00:29:03;1.98;;;1.17;;
52972;SDS011;38837;48.916;2.336;2023-12-20T00:31:05;2.65;;;1.40;;
52972;SDS011;38837;48.916;2.336;2023-12-20T00:33:07;2.70;;;1.23;;
52972;SDS011;38837;48.916;2.336;2023-12-20T00:35:09;3.25;;;1.15;;
52972;SDS011;38837;48.916;2.336;2023-12-20T00:37:11;7.47;;;2.20;;
52972;SDS011;38837;48.916;2.336;2023-12-20T00:39:13;3.30;;;1.45;;
52972;SDS011;38837;48.916;2.336;2023-12-20T00:41:15;2.85;;;1.38;;
52972;SDS011;38837;48.916;2.336;2023-12-20T00:43:17;4.00;;;1.50;;
52972;SDS011;38837;48.916;2.336;2023-12-20T00:45:19;3.17;;;1.10;;
52972;SDS011;38837;48.916;2.336;2023-12-20T00:47:21;2.92;;;1.30;;
52972;SDS011;38837;48.916;2.336;2023-12-20T00:49:23;6.43;;;1.52;;
52972;SDS011;38837;48.916;2.336;2023-12-20T00:51:25;4.45;;;1.00;;
52972;SDS011;38837;48.916;2.336;2023-12-20T00:53:27;3.50;;;1.27;;
52972;SDS011;38837;48.916;2.336;2023-12-20T00:55:28;2.83;;;1.27;;
52972;SDS011;38837;48.916;2.336;2023-12-20T00:57:30;4.97;;;1.38;;
52972;SDS011;38837;48.916;2.336;2023-12-20T00:59:33;3.38;;;1.15;;
52972;SDS011;38837;48.916;2.336;2023-12-20T01:01:34;3.38;;;1.40;;
52972;SDS011;38837;48.916;2.336;2023-12-20T01:03:36;5.28;;;1.83;;
52972;SDS011;38837;48.916;2.336;2023-12-20T01:05:38;4.45;;;1.30;;
52972;SDS011;38837;48.916;2.336;2023-12-20T01:07:40;2.45;;;0.95;;
52972;SDS011;38837;48.916;2.336;2023-12-20T01:09:43;3.00;;;1.10;;
52972;SDS011;38837;48.916;2.336;2023-12-20T01:11:45;4.28;;;1.40;;
52972;SDS011;38837;48.916;2.336;2023-12-20T01:13:49;2.53;;;1.00;;
52972;SDS011;38837;48.916;2.336;2023-12-20T01:15:51;4.57;;;1.35;;
52972;SDS011;38837;48.916;2.336;2023-12-20T01:17:53;5.13;;;1.50;;
52972;SDS011;38837;48.916;2.336;2023-12-20T01:19:55;3.00;;;1.00;;
52972;SDS011;38837;48.916;2.336;2023-12-20T01:21:57;3.42;;;1.10;;
52972;SDS011;38837;48.916;2.336;2023-12-20T01:23:58;4.55;;;1.17;;
52972;SDS011;38837;48.916;2.336;2023-12-20T01:26:00;3.38;;;1.05;;
52972;SDS011;38837;48.916;2.336;2023-12-20T01:28:04;5.83;;;1.40;;
52972;SDS011;38837;48.916;2.336;2023-12-20T01:30:06;3.30;;;1.23;;
52972;SDS011;38837;48.916;2.336;2023-12-20T01:32:08;2.92;;;1.17;;
52972;SDS011;38837;48.916;2.336;2023-12-20T01:34:10;6.88;;;1.50;;
52972;SDS011;38837;48.916;2.336;2023-12-20T01:36:12;4.38;;;1.10;;
52972;SDS011;38837;48.916;2.336;2023-12-20T01:38:14;5.20;;;1.50;;
52972;SDS011;38837;48.916;2.336;2023-12-20T01:40:16;4.22;;;1.50;;
52972;SDS011;38837;48.916;2.336;2023-12-20T01:42:18;2.45;;;1.40;;
52972;SDS011;38837;48.916;2.336;2023-12-20T01:44:20;3.65;;;1.70;;
52972;SDS011;38837;48.916;2.336;2023-12-20T01:46:22;3.78;;;1.40;;
52972;SDS011;38837;48.916;2.336;2023-12-20T01:48:24;4.63;;;1.27;;
52972;SDS011;38837;48.916;2.336;2023-12-20T01:50:27;5.73;;;1.43;;
52972;SDS011;38837;48.916;2.336;2023-12-20T01:52:30;5.00;;;1.23;;
52972;SDS011;38837;48.916;2.336;2023-12-20T01:54:32;4.18;;;1.13;;
52972;SDS011;38837;48.916;2.336;2023-12-20T01:56:34;3.03;;;1.30;;
52972;SDS011;38837;48.916;2.336;2023-12-20T01:58:38;5.85;;;1.23;;
52972;SDS011;38837;48.916;2.336;2023-12-20T02:00:43;3.25;;;1.25;;
52972;SDS011;38837;48.916;2.336;2023-12-20T02:02:45;2.53;;;1.20;;
52972;SDS011;38837;48.916;2.336;2023-12-20T02:04:48;5.80;;;1.58;;
52972;SDS011;38837;48.916;2.336;2023-12-20T02:06:52;5.05;;;1.73;;
52972;SDS011;38837;48.916;2.336;2023-12-20T02:08:54;5.13;;;1.50;;
52972;SDS011;38837;48.916;2.336;2023-12-20T02:10:56;4.55;;;1.30;;
52972;SDS011;38837;48.916;2.336;2023-12-20T02:12:58;5.30;;;1.60;;
52972;SDS011;38837;48.916;2.336;2023-12-20T02:15:00;4.05;;;1.58;;
52972;SDS011;38837;48.916;2.336;2023-12-20T02:17:02;5.00;;;1.50;;
52972;SDS011;38837;48.916;2.336;2023-12-20T02:19:05;3.97;;;1.33;;
52972;SDS011;38837;48.916;2.336;2023-12-20T02:21:18;4.32;;;1.63;;
52972;SDS011;38837;48.916;2.336;2023-12-20T02:23:26;3.50;;;1.20;;
52972;SDS011;38837;48.916;2.336;2023-12-20T02:25:28;3.22;;;1.30;;
52972;SDS011;38837;48.916;2.336;2023-12-20T02:27:30;4.85;;;1.83;;
52972;SDS011;38837;48.916;2.336;2023-12-20T02:29:35;3.70;;;1.67;;
52972;SDS011;38837;48.916;2.336;2023-12-20T02:31:37;4.32;;;1.20;;
52972;SDS011;38837;48.916;2.336;2023-12-20T02:33:39;4.15;;;1.50;;
52972;SDS011;38837;48.916;2.336;2023-12-20T02:35:43;2.78;;;1.30;;
52972;SDS011;38837;48.916;2.336;2023-12-20T02:37:45;5.38;;;1.63;;
52972;SDS011;38837;48.916;2.336;2023-12-20T02:39:47;4.43;;;1.75;;
52972;SDS011;38837;48.916;2.336;2023-12-20T02:41:49;4.00;;;1.20;;
52972;SDS011;38837;48.916;2.336;2023-12-20T02:43:51;4.68;;;1.67;;
52972;SDS011;38837;48.916;2.336;2023-12-20T02:45:53;5.72;;;1.73;;
52972;SDS011;38837;48.916;2.336;2023-12-20T02:47:55;4.28;;;1.23;;
52972;SDS011;38837;48.916;2.336;2023-12-20T02:49:57;3.90;;;1.42;;
52972;SDS011;38837;48.916;2.336;2023-12-20T02:51:59;2.78;;;1.00;;
52972;SDS011;38837;48.916;2.336;2023-12-20T02:54:01;5.13;;;1.30;;
52972;SDS011;38837;48.916;2.336;2023-12-20T02:56:04;4.57;;;1.30;;
52972;SDS011;38837;48.916;2.336;2023-12-20T02:58:06;4.03;;;1.30;;
52972;SDS011;38837;48.916;2.336;2023-12-20T03:00:08;3.25;;;1.42;;
52972;SDS011;38837;48.916;2.336;2023-12-20T03:02:10;2.55;;;1.10;;
52972;SDS011;38837;48.916;2.336;2023-12-20T03:04:12;5.03;;;1.92;;
52972;SDS011;38837;48.916;2.336;2023-12-20T03:06:17;3.58;;;1.30;;
52972;SDS011;38837;48.916;2.336;2023-12-20T03:08:20;7.13;;;1.75;;
52972;SDS011;38837;48.916;2.336;2023-12-20T03:10:22;3.97;;;1.75;;
52972;SDS011;38837;48.916;2.336;2023-12-20T03:12:28;5.78;;;1.60;;
52972;SDS011;38837;48.916;2.336;2023-12-20T03:14:29;4.25;;;1.33;;
52972;SDS011;38837;48.916;2.336;2023-12-20T03:16:31;6.75;;;1.38;;
52972;SDS011;38837;48.916;2.336;2023-12-20T03:18:37;4.20;;;1.30;;
52972;SDS011;38837;48.916;2.336;2023-12-20T03:20:39;4.15;;;1.30;;
52972;SDS011;38837;48.916;2.336;2023-12-20T03:22:42;2.92;;;1.40;;
52972;SDS011;38837;48.916;2.336;2023-12-20T03:24:44;3.92;;;1.20;;
52972;SDS011;38837;48.916;2.336;2023-12-20T03:26:46;4.93;;;1.63;;
52972;SDS011;38837;48.916;2.336;2023-12-20T03:28:47;3.22;;;1.50;;
52972;SDS011;38837;48.916;2.336;2023-12-20T03:30:50;2.30;;;1.08;;
52972;SDS011;38837;48.916;2.336;2023-12-20T03:32:52;5.10;;;1.63;;
52972;SDS011;38837;48.916;2.336;2023-12-20T03:34:54;3.10;;;1.27;;
52972;SDS011;38837;48.916;2.336;2023-12-20T03:36:56;3.78;;;1.50;;
52972;SDS011;38837;48.916;2.336;2023-12-20T03:38:58;5.30;;;1.65;;
52972;SDS011;38837;48.916;2.336;2023-12-20T03:40:59;6.07;;;1.63;;
52972;SDS011;38837;48.916;2.336;2023-12-20T03:43:01;3.78;;;1.45;;
52972;SDS011;38837;48.916;2.336;2023-12-20T03:45:03;4.38;;;1.63;;
52972;SDS011;38837;48.916;2.336;2023-12-20T03:47:06;6.72;;;1.40;;
52972;SDS011;38837;48.916;2.336;2023-12-20T03:49:08;4.82;;;1.48;;
52972;SDS011;38837;48.916;2.336;2023-12-20T03:51:09;3.25;;;1.55;;
52972;SDS011;38837;48.916;2.336;2023-12-20T03:53:11;5.13;;;1.63;;
52972;SDS011;38837;48.916;2.336;2023-12-20T03:55:13;5.65;;;1.83;;
52972;SDS011;38837;48.916;2.336;2023-12-20T03:57:16;4.40;;;1.27;;
52972;SDS011;38837;48.916;2.336;2023-12-20T03:59:18;1.95;;;1.00;;
52972;SDS011;38837;48.916;2.336;2023-12-20T04:01:19;2.33;;;1.13;;
52972;SDS011;38837;48.916;2.336;2023-12-20T04:03:21;5.75;;;1.95;;
52972;SDS011;38837;48.916;2.336;2023-12-20T04:05:23;5.63;;;1.85;;
52972;SDS011;38837;48.916;2.336;2023-12-20T04:07:25;4.03;;;1.50;;
52972;SDS011;38837;48.916;2.336;2023-12-20T04:09:27;3.15;;;1.45;;
52972;SDS011;38837;48.916;2.336;2023-12-20T04:11:29;5.30;;;1.73;;
52972;SDS011;38837;48.916;2.336;2023-12-20T04:13:31;6.80;;;1.35;;
52972;SDS011;38837;48.916;2.336;2023-12-20T04:15:33;5.40;;;1.65;;
52972;SDS011;38837;48.916;2.336;2023-12-20T04:17:35;3.63;;;1.52;;
52972;SDS011;38837;48.916;2.336;2023-12-20T04:19:38;4.35;;;1.77;;
52972;SDS011;38837;48.916;2.336;2023-12-20T04:21:40;5.50;;;1.67;;
52972;SDS011;38837;48.916;2.336;2023-12-20T04:23:42;3.60;;;1.35;;
52972;SDS011;38837;48.916;2.336;2023-12-20T04:25:43;4.35;;;1.38;;
52972;SDS011;38837;48.916;2.336;2023-12-20T04:27:45;3.22;;;1.38;;
52972;SDS011;38837;48.916;2.336;2023-12-20T04:29:47;2.58;;;1.13;;
52972;SDS011;38837;48.916;2.336;2023-12-20T04:31:49;3.33;;;1.35;;
52972;SDS011;38837;48.916;2.336;2023-12-20T04:33:53;4.55;;;1.55;;
52972;SDS011;38837;48.916;2.336;2023-12-20T04:35:55;5.03;;;1.40;;
52972;SDS011;38837;48.916;2.336;2023-12-20T04:37:57;3.45;;;1.33;;
52972;SDS011;38837;48.916;2.336;2023-12-20T04:39:59;4.30;;;1.15;;
52972;SDS011;38837;48.916;2.336;2023-12-20T04:42:01;3.85;;;1.23;;
52972;SDS011;38837;48.916;2.336;2023-12-20T04:44:03;6.40;;;1.58;;
52972;SDS011;38837;48.916;2.336;2023-12-20T04:46:05;5.30;;;1.30;;
52972;SDS011;38837;48.916;2.336;2023-12-20T04:48:07;4.07;;;1.60;;
52972;SDS011;38837;48.916;2.336;2023-12-20T04:50:09;3.08;;;1.30;;
52972;SDS011;38837;48.916;2.336;2023-12-20T04:52:12;12.33;;;2.00;;
52972;SDS011;38837;48.916;2.336;2023-12-20T04:54:14;2.25;;;1.35;;
52972;SDS011;38837;48.916;2.336;2023-12-20T04:56:16;4.28;;;1.10;;
52972;SDS011;38837;48.916;2.336;2023-12-20T04:58:17;4.05;;;1.40;;
52972;SDS011;38837;48.916;2.336;2023-12-20T05:00:19;4.82;;;1.50;;
52972;SDS011;38837;48.916;2.336;2023-12-20T05:02:21;4.80;;;1.48;;
52972;SDS011;38837;48.916;2.336;2023-12-20T05:04:23;3.45;;;1.17;;
52972;SDS011;38837;48.916;2.336;2023-12-20T05:06:25;5.25;;;1.63;;
52972;SDS011;38837;48.916;2.336;2023-12-20T05:08:27;4.57;;;1.50;;
52972;SDS011;38837;48.916;2.336;2023-12-20T05:10:29;4.18;;;1.30;;
52972;SDS011;38837;48.916;2.336;2023-12-20T05:12:31;4.75;;;1.60;;
52972;SDS011;38837;48.916;2.336;2023-12-20T05:14:33;6.85;;;1.52;;
52972;SDS011;38837;48.916;2.336;2023-12-20T05:16:34;4.28;;;1.25;;
52972;SDS011;38837;48.916;2.336;2023-12-20T05:18:36;3.67;;;1.30;;
52972;SDS011;38837;48.916;2.336;2023-12-20T05:20:38;4.68;;;1.30;;
52972;SDS011;38837;48.916;2.336;2023-12-20T05:22:40;3.53;;;1.27;;
52972;SDS011;38837;48.916;2.336;2023-12-20T05:24:42;5.53;;;2.00;;
52972;SDS011;38837;48.916;2.336;2023-12-20T05:26:44;5.95;;;1.83;;
52972;SDS011;38837;48.916;2.336;2023-12-20T05:28:46;6.30;;;1.63;;
52972;SDS011;38837;48.916;2.336;2023-12-20T05:30:48;3.90;;;1.42;;
52972;SDS011;38837;48.916;2.336;2023-12-20T05:32:50;4.82;;;1.73;;
52972;SDS011;38837;48.916;2.336;2023-12-20T05:34:52;3.83;;;1.30;;
52972;SDS011;38837;48.916;2.336;2023-12-20T05:36:54;4.68;;;1.73;;
52972;SDS011;38837;48.916;2.336;2023-12-20T05:38:56;5.30;;;1.70;;
52972;SDS011;38837;48.916;2.336;2023-12-20T05:40:58;4.68;;;1.88;;
52972;SDS011;38837;48.916;2.336;2023-12-20T05:43:00;5.75;;;1.60;;
52972;SDS011;38837;48.916;2.336;2023-12-20T05:45:02;4.93;;;1.48;;
52972;SDS011;38837;48.916;2.336;2023-12-20T05:47:04;4.15;;;1.48;;
52972;SDS011;38837;48.916;2.336;2023-12-20T05:49:06;2.28;;;1.25;;
52972;SDS011;38837;48.916;2.336;2023-12-20T05:51:11;4.93;;;1.45;;
52972;SDS011;38837;48.916;2.336;2023-12-20T05:53:13;4.15;;;1.38;;
52972;SDS011;38837;48.916;2.336;2023-12-20T05:55:15;3.97;;;1.40;;
52972;SDS011;38837;48.916;2.336;2023-12-20T05:57:17;3.47;;;1.50;;
52972;SDS011;38837;48.916;2.336;2023-12-20T05:59:18;3.72;;;1.23;;
52972;SDS011;38837;48.916;2.336;2023-12-20T06:01:20;3.92;;;1.42;;
52972;SDS011;38837;48.916;2.336;2023-12-20T06:03:22;3.38;;;1.35;;
52972;SDS011;38837;48.916;2.336;2023-12-20T06:05:24;3.90;;;1.38;;
52972;SDS011;38837;48.916;2.336;2023-12-20T06:07:26;3.13;;;1.50;;
52972;SDS011;38837;48.916;2.336;2023-12-20T06:09:28;4.35;;;1.42;;
52972;SDS011;38837;48.916;2.336;2023-12-20T06:11:32;3.08;;;1.23;;
52972;SDS011;38837;48.916;2.336;2023-12-20T06:13:34;5.75;;;1.52;;
52972;SDS011;38837;48.916;2.336;2023-12-20T06:15:36;3.78;;;1.70;;
52972;SDS011;38837;48.916;2.336;2023-12-20T06:17:38;2.92;;;1.27;;
52972;SDS011;38837;48.916;2.336;2023-12-20T06:19:40;3.20;;;1.33;;
52972;SDS011;38837;48.916;2.336;2023-12-20T06:21:44;7.22;;;1.60;;
52972;SDS011;38837;48.916;2.336;2023-12-20T06:23:46;4.50;;;1.42;;
52972;SDS011;38837;48.916;2.336;2023-12-20T06:25:47;3.78;;;1.52;;
52972;SDS011;38837;48.916;2.336;2023-12-20T06:27:49;3.40;;;1.33;;
52972;SDS011;38837;48.916;2.336;2023-12-20T06:29:51;5.90;;;1.60;;
52972;SDS011;38837;48.916;2.336;2023-12-20T06:31:53;5.95;;;1.42;;
52972;SDS011;38837;48.916;2.336;2023-12-20T06:33:55;7.55;;;1.77;;
52972;SDS011;38837;48.916;2.336;2023-12-20T06:35:59;4.10;;;1.85;;
52972;SDS011;38837;48.916;2.336;2023-12-20T06:38:02;4.55;;;1.75;;
52972;SDS011;38837;48.916;2.336;2023-12-20T06:40:04;5.97;;;1.40;;
52972;SDS011;38837;48.916;2.336;2023-12-20T06:42:10;5.05;;;1.65;;
52972;SDS011;38837;48.916;2.336;2023-12-20T06:44:12;4.60;;;1.40;;
52972;SDS011;38837;48.916;2.336;2023-12-20T06:46:14;4.32;;;1.70;;
52972;SDS011;38837;48.916;2.336;2023-12-20T06:48:16;4.60;;;1.70;;
52972;SDS011;38837;48.916;2.336;2023-12-20T06:50:20;4.28;;;1.70;;
52972;SDS011;38837;48.916;2.336;2023-12-20T06:52:22;6.43;;;1.60;;
52972;SDS011;38837;48.916;2.336;2023-12-20T06:54:23;4.18;;;1.80;;
52972;SDS011;38837;48.916;2.336;2023-12-20T06:56:25;5.07;;;1.50;;
52972;SDS011;38837;48.916;2.336;2023-12-20T06:58:27;6.07;;;1.52;;
52972;SDS011;38837;48.916;2.336;2023-12-20T07:00:30;7.97;;;1.90;;
52972;SDS011;38837;48.916;2.336;2023-12-20T07:02:32;4.13;;;1.58;;
52972;SDS011;38837;48.916;2.336;2023-12-20T07:04:34;6.22;;;1.75;;
52972;SDS011;38837;48.916;2.336;2023-12-20T07:06:40;3.83;;;1.42;;
52972;SDS011;38837;48.916;2.336;2023-12-20T07:08:42;4.88;;;2.03;;
52972;SDS011;38837;48.916;2.336;2023-12-20T07:10:44;6.30;;;1.70;;
52972;SDS011;38837;48.916;2.336;2023-12-20T07:12:45;4.65;;;1.80;;
52972;SDS011;38837;48.916;2.336;2023-12-20T07:14:47;4.00;;;1.67;;
52972;SDS011;38837;48.916;2.336;2023-12-20T07:16:49;6.50;;;1.63;;
52972;SDS011;38837;48.916;2.336;2023-12-20T07:18:51;4.38;;;1.33;;
52972;SDS011;38837;48.916;2.336;2023-12-20T07:20:54;6.25;;;1.92;;
52972;SDS011;38837;48.916;2.336;2023-12-20T07:22:56;4.72;;;1.48;;
52972;SDS011;38837;48.916;2.336;2023-12-20T07:24:58;4.07;;;1.60;;
52972;SDS011;38837;48.916;2.336;2023-12-20T07:27:01;5.18;;;1.67;;
52972;SDS011;38837;48.916;2.336;2023-12-20T07:29:03;4.38;;;1.52;;
52972;SDS011;38837;48.916;2.336;2023-12-20T07:31:05;6.88;;;1.83;;
52972;SDS011;38837;48.916;2.336;2023-12-20T07:33:07;4.60;;;1.50;;
52972;SDS011;38837;48.916;2.336;2023-12-20T07:35:11;5.30;;;1.70;;
52972;SDS011;38837;48.916;2.336;2023-12-20T07:37:13;3.35;;;1.55;;
52972;SDS011;38837;48.916;2.336;2023-12-20T07:39:15;4.50;;;1.48;;
52972;SDS011;38837;48.916;2.336;2023-12-20T07:41:17;4.45;;;1.65;;
52972;SDS011;38837;48.916;2.336;2023-12-20T07:43:22;4.57;;;1.60;;
52972;SDS011;38837;48.916;2.336;2023-12-20T07:45:24;4.10;;;1.67;;
52972;SDS011;38837;48.916;2.336;2023-12-20T07:47:26;4.22;;;1.40;;
52972;SDS011;38837;48.916;2.336;2023-12-20T07:49:28;4.53;;;1.60;;
52972;SDS011;38837;48.916;2.336;2023-12-20T07:51:30;5.07;;;1.85;;
52972;SDS011;38837;48.916;2.336;2023-12-20T07:53:32;4.15;;;1.23;;
52972;SDS011;38837;48.916;2.336;2023-12-20T07:55:34;4.72;;;1.73;;
52972;SDS011;38837;48.916;2.336;2023-12-20T07:57:36;5.93;;;1.58;;
52972;SDS011;38837;48.916;2.336;2023-12-20T07:59:38;6.72;;;1.75;;
52972;SDS011;38837;48.916;2.336;2023-12-20T08:01:40;10.50;;;1.83;;
52972;SDS011;38837;48.916;2.336;2023-12-20T08:03:43;5.17;;;1.80;;
52972;SDS011;38837;48.916;2.336;2023-12-20T08:05:45;5.03;;;1.73;;
52972;SDS011;38837;48.916;2.336;2023-12-20T08:07:47;8.52;;;1.80;;
52972;SDS011;38837;48.916;2.336;2023-12-20T08:09:49;5.47;;;1.90;;
52972;SDS011;38837;48.916;2.336;2023-12-20T08:11:52;6.82;;;1.73;;
52972;SDS011;38837;48.916;2.336;2023-12-20T08:13:54;7.95;;;2.20;;
52972;SDS011;38837;48.916;2.336;2023-12-20T08:15:56;9.90;;;2.03;;
52972;SDS011;38837;48.916;2.336;2023-12-20T08:17:58;11.50;;;2.55;;
52972;SDS011;38837;48.916;2.336;2023-12-20T08:20:00;8.55;;;2.28;;
52972;SDS011;38837;48.916;2.336;2023-12-20T08:22:02;13.13;;;2.92;;
52972;SDS011;38837;48.916;2.336;2023-12-20T08:24:04;12.52;;;2.85;;
52972;SDS011;38837;48.916;2.336;2023-12-20T08:26:07;8.45;;;2.67;;
52972;SDS011;38837;48.916;2.336;2023-12-20T08:28:09;8.15;;;2.67;;
52972;SDS011;38837;48.916;2.336;2023-12-20T08:30:11;9.63;;;2.95;;
52972;SDS011;38837;48.916;2.336;2023-12-20T08:32:14;14.05;;;2.40;;
52972;SDS011;38837;48.916;2.336;2023-12-20T08:34:15;6.05;;;2.47;;
52972;SDS011;38837;48.916;2.336;2023-12-20T08:36:18;13.90;;;2.97;;
52972;SDS011;38837;48.916;2.336;2023-12-20T08:38:22;12.10;;;3.40;;
52972;SDS011;38837;48.916;2.336;2023-12-20T08:40:24;9.43;;;3.33;;
52972;SDS011;38837;48.916;2.336;2023-12-20T08:42:26;13.73;;;3.00;;
52972;SDS011;38837;48.916;2.336;2023-12-20T08:44:32;11.57;;;3.35;;
52972;SDS011;38837;48.916;2.336;2023-12-20T08:46:34;14.10;;;3.58;;
52972;SDS011;38837;48.916;2.336;2023-12-20T08:48:36;13.77;;;3.22;;
52972;SDS011;38837;48.916;2.336;2023-12-20T08:50:39;11.20;;;3.17;;
52972;SDS011;38837;48.916;2.336;2023-12-20T08:52:41;13.60;;;3.10;;
52972;SDS011;38837;48.916;2.336;2023-12-20T08:54:43;11.48;;;3.20;;
52972;SDS011;38837;48.916;2.336;2023-12-20T08:56:46;10.02;;;3.05;;
52972;SDS011;38837;48.916;2.336;2023-12-20T08:58:48;12.07;;;2.90;;
52972;SDS011;38837;48.916;2.336;2023-12-20T09:00:50;9.52;;;2.92;;
52972;SDS011;38837;48.916;2.336;2023-12-20T09:02:52;9.63;;;2.78;;
52972;SDS011;38837;48.916;2.336;2023-12-20T09:04:54;14.43;;;3.13;;
52972;SDS011;38837;48.916;2.336;2023-12-20T09:06:59;15.23;;;3.30;;
52972;SDS011;38837;48.916;2.336;2023-12-20T09:09:02;10.15;;;2.58;;
52972;SDS011;38837;48.916;2.336;2023-12-20T09:11:04;8.27;;;2.75;;
52972;SDS011;38837;48.916;2.336;2023-12-20T09:13:07;10.65;;;2.88;;
52972;SDS011;38837;48.916;2.336;2023-12-20T09:15:09;5.35;;;2.20;;
52972;SDS011;38837;48.916;2.336;2023-12-20T09:17:11;8.20;;;2.65;;
52972;SDS011;38837;48.916;2.336;2023-12-20T09:19:14;8.45;;;2.88;;
52972;SDS011;38837;48.916;2.336;2023-12-20T09:21:16;10.77;;;2.67;;
52972;SDS011;38837;48.916;2.336;2023-12-20T09:23:17;10.57;;;2.58;;
52972;SDS011;38837;48.916;2.336;2023-12-20T09:25:19;10.70;;;2.78;;
52972;SDS011;38837;48.916;2.336;2023-12-20T09:27:21;7.75;;;2.47;;
52972;SDS011;38837;48.916;2.336;2023-12-20T09:29:23;8.00;;;2.40;;
52972;SDS011;38837;48.916;2.336;2023-12-20T09:31:26;8.55;;;2.80;;
52972;SDS011;38837;48.916;2.336;2023-12-20T09:33:28;8.07;;;2.08;;
52972;SDS011;38837;48.916;2.336;2023-12-20T09:35:30;6.45;;;2.28;;
52972;SDS011;38837;48.916;2.336;2023-12-20T09:37:32;8.00;;;2.53;;
52972;SDS011;38837;48.916;2.336;2023-12-20T09:39:34;9.20;;;2.80;;
52972;SDS011;38837;48.916;2.336;2023-12-20T09:41:36;9.48;;;2.72;;
52972;SDS011;38837;48.916;2.336;2023-12-20T09:43:42;6.32;;;2.25;;
52972;SDS011;38837;48.916;2.336;2023-12-20T09:45:47;8.85;;;2.58;;
52972;SDS011;38837;48.916;2.336;2023-12-20T09:47:52;7.30;;;2.38;;
52972;SDS011;38837;48.916;2.336;2023-12-20T09:49:55;8.32;;;2.10;;
52972;SDS011;38837;48.916;2.336;2023-12-20T09:51:58;6.47;;;2.35;;
52972;SDS011;38837;48.916;2.336;2023-12-20T09:54:05;6.70;;;2.40;;
52972;SDS011;38837;48.916;2.336;2023-12-20T09:56:06;8.70;;;2.30;;
52972;SDS011;38837;48.916;2.336;2023-12-20T09:58:09;5.72;;;2.10;;
52972;SDS011;38837;48.916;2.336;2023-12-20T10:00:11;5.88;;;2.50;;
52972;SDS011;38837;48.916;2.336;2023-12-20T10:02:14;9.20;;;2.58;;
52972;SDS011;38837;48.916;2.336;2023-12-20T10:04:17;6.20;;;2.30;;
52972;SDS011;38837;48.916;2.336;2023-12-20T10:06:21;7.80;;;2.45;;
52972;SDS011;38837;48.916;2.336;2023-12-20T10:08:24;6.82;;;2.17;;
52972;SDS011;38837;48.916;2.336;2023-12-20T10:10:26;7.00;;;2.60;;
52972;SDS011;38837;48.916;2.336;2023-12-20T10:13:00;9.18;;;2.40;;
52972;SDS011;38837;48.916;2.336;2023-12-20T10:15:06;6.22;;;2.15;;
52972;SDS011;38837;48.916;2.336;2023-12-20T10:17:09;4.68;;;1.83;;
52972;SDS011;38837;48.916;2.336;2023-12-20T10:19:11;6.03;;;2.42;;
52972;SDS011;38837;48.916;2.336;2023-12-20T10:21:13;9.48;;;2.30;;
52972;SDS011;38837;48.916;2.336;2023-12-20T10:23:15;9.00;;;2.47;;
52972;SDS011;38837;48.916;2.336;2023-12-20T10:25:17;7.70;;;2.38;;
52972;SDS011;38837;48.916;2.336;2023-12-20T10:27:19;8.02;;;2.50;;
52972;SDS011;38837;48.916;2.336;2023-12-20T10:29:21;5.85;;;2.55;;
52972;SDS011;38837;48.916;2.336;2023-12-20T10:31:26;6.60;;;2.55;;
52972;SDS011;38837;48.916;2.336;2023-12-20T10:33:30;9.70;;;2.13;;
52972;SDS011;38837;48.916;2.336;2023-12-20T10:35:37;7.43;;;2.20;;
52972;SDS011;38837;48.916;2.336;2023-12-20T10:37:43;9.07;;;2.22;;
52972;SDS011;38837;48.916;2.336;2023-12-20T10:39:52;5.47;;;2.08;;
52972;SDS011;38837;48.916;2.336;2023-12-20T10:41:59;8.25;;;2.60;;
52972;SDS011;38837;48.916;2.336;2023-12-20T10:44:02;8.00;;;2.50;;
52972;SDS011;38837;48.916;2.336;2023-12-20T10:46:06;6.53;;;2.28;;
52972;SDS011;38837;48.916;2.336;2023-12-20T10:48:10;6.57;;;2.22;;
52972;SDS011;38837;48.916;2.336;2023-12-20T10:50:13;4.70;;;2.05;;
52972;SDS011;38837;48.916;2.336;2023-12-20T10:52:16;7.23;;;2.23;;
52972;SDS011;38837;48.916;2.336;2023-12-20T10:54:18;6.00;;;2.25;;
52972;SDS011;38837;48.916;2.336;2023-12-20T10:56:20;6.90;;;2.60;;
52972;SDS011;38837;48.916;2.336;2023-12-20T11:00:28;7.07;;;1.75;;
52972;SDS011;38837;48.916;2.336;2023-12-20T11:02:32;8.70;;;2.63;;
52972;SDS011;38837;48.916;2.336;2023-12-20T11:04:53;8.00;;;2.67;;
52972;SDS011;38837;48.916;2.336;2023-12-20T11:09:31;11.13;;;2.42;;
52972;SDS011;38837;48.916;2.336;2023-12-20T11:15:56;6.35;;;1.95;;
52972;SDS011;38837;48.916;2.336;2023-12-20T11:17:59;6.35;;;2.13;;
52972;SDS011;38837;48.916;2.336;2023-12-20T11:22:03;9.02;;;2.55;;
52972;SDS011;38837;48.916;2.336;2023-12-20T11:24:07;10.32;;;2.67;;
52972;SDS011;38837;48.916;2.336;2023-12-20T11:26:09;7.90;;;2.22;;
52972;SDS011;38837;48.916;2.336;2023-12-20T11:28:10;6.90;;;2.28;;
52972;SDS011;38837;48.916;2.336;2023-12-20T11:30:13;7.07;;;2.83;;
52972;SDS011;38837;48.916;2.336;2023-12-20T11:34:34;4.68;;;2.30;;
52972;SDS011;38837;48.916;2.336;2023-12-20T11:36:42;5.93;;;2.40;;
52972;SDS011;38837;48.916;2.336;2023-12-20T11:38:56;7.13;;;2.90;;
52972;SDS011;38837;48.916;2.336;2023-12-20T11:40:59;8.27;;;3.22;;
52972;SDS011;38837;48.916;2.336;2023-12-20T11:43:05;6.18;;;2.60;;
52972;SDS011;38837;48.916;2.336;2023-12-20T11:45:13;6.65;;;2.65;;
52972;SDS011;38837;48.916;2.336;2023-12-20T11:47:17;6.55;;;2.33;;
52972;SDS011;38837;48.916;2.336;2023-12-20T11:49:22;8.50;;;3.20;;
52972;SDS011;38837;48.916;2.336;2023-12-20T11:51:25;5.00;;;2.20;;
52972;SDS011;38837;48.916;2.336;2023-12-20T11:53:29;9.02;;;2.80;;
52972;SDS011;38837;48.916;2.336;2023-12-20T11:55:33;6.50;;;2.67;;
52972;SDS011;38837;48.916;2.336;2023-12-20T11:57:35;11.98;;;3.08;;
52972;SDS011;38837;48.916;2.336;2023-12-20T11:59:38;7.25;;;2.70;;
52972;SDS011;38837;48.916;2.336;2023-12-20T12:01:39;9.27;;;2.63;;
52972;SDS011;38837;48.916;2.336;2023-12-20T12:03:42;7.43;;;3.10;;
52972;SDS011;38837;48.916;2.336;2023-12-20T12:05:46;8.20;;;2.42;;
52972;SDS011;38837;48.916;2.336;2023-12-20T12:07:49;5.85;;;2.35;;
52972;SDS011;38837;48.916;2.336;2023-12-20T12:09:51;5.93;;;2.15;;
52972;SDS011;38837;48.916;2.336;2023-12-20T12:11:53;8.15;;;2.55;;
52972;SDS011;38837;48.916;2.336;2023-12-20T12:13:55;7.78;;;2.47;;
52972;SDS011;38837;48.916;2.336;2023-12-20T12:15:57;7.78;;;2.80;;
52972;SDS011;38837;48.916;2.336;2023-12-20T12:18:00;12.00;;;2.58;;
52972;SDS011;38837;48.916;2.336;2023-12-20T12:20:03;7.22;;;2.50;;
52972;SDS011;38837;48.916;2.336;2023-12-20T12:22:14;18.92;;;2.55;;
52972;SDS011;38837;48.916;2.336;2023-12-20T12:24:20;13.55;;;3.05;;
52972;SDS011;38837;48.916;2.336;2023-12-20T12:26:24;15.80;;;3.35;;
52972;SDS011;38837;48.916;2.336;2023-12-20T12:28:26;12.27;;;2.88;;
52972;SDS011;38837;48.916;2.336;2023-12-20T12:30:30;23.30;;;2.95;;